sensor_id;sensor_type;location;lat;lon;timestamp;P1;durP1;ratioP1;P2;durP2;ratioP2
75912;SDS011;64592;52.168;21.040;2022-11-15T00:04:54;32.72;;;13.90;;
75912;SDS011;64592;52.168;21.040;2022-11-15T00:09:56;30.80;;;14.45;;
75912;SDS011;64592;52.168;21.040;2022-11-15T00:14:58;24.55;;;12.70;;
75912;SDS011;64592;52.168;21.040;2022-11-15T00:20:00;28.08;;;12.95;;
75912;SDS011;64592;52.168;21.040;2022-11-15T00:25:02;28.75;;;13.43;;
75912;SDS011;64592;52.168;21.040;2022-11-15T00:30:05;28.02;;;12.95;;
75912;SDS011;64592;52.168;21.040;2022-11-15T00:35:08;26.40;;;13.27;;
75912;SDS011;64592;52.168;21.040;2022-11-15T00:40:10;29.38;;;14.38;;
75912;SDS011;64592;52.168;21.040;2022-11-15T00:45:12;30.60;;;13.30;;
75912;SDS011;64592;52.168;21.040;2022-11-15T00:50:15;31.08;;;14.27;;
75912;SDS011;64592;52.168;21.040;2022-11-15T00:55:18;32.63;;;15.32;;
75912;SDS011;64592;52.168;21.040;2022-11-15T01:00:20;37.20;;;16.55;;
75912;SDS011;64592;52.168;21.040;2022-11-15T01:05:23;38.00;;;16.55;;
75912;SDS011;64592;52.168;21.040;2022-11-15T01:10:24;38.03;;;16.60;;
75912;SDS011;64592;52.168;21.040;2022-11-15T01:15:26;33.22;;;15.30;;
75912;SDS011;64592;52.168;21.040;2022-11-15T01:20:29;36.85;;;16.30;;
75912;SDS011;64592;52.168;21.040;2022-11-15T01:25:31;38.22;;;14.93;;
75912;SDS011;64592;52.168;21.040;2022-11-15T01:30:32;39.42;;;18.27;;
75912;SDS011;64592;52.168;21.040;2022-11-15T01:35:39;35.28;;;14.98;;
75912;SDS011;64592;52.168;21.040;2022-11-15T01:40:41;38.40;;;16.35;;
75912;SDS011;64592;52.168;21.040;2022-11-15T01:45:42;34.25;;;14.60;;
75912;SDS011;64592;52.168;21.040;2022-11-15T01:50:48;32.65;;;16.02;;
75912;SDS011;64592;52.168;21.040;2022-11-15T01:55:51;32.88;;;13.95;;
75912;SDS011;64592;52.168;21.040;2022-11-15T02:00:53;34.70;;;14.13;;
75912;SDS011;64592;52.168;21.040;2022-11-15T02:05:56;39.30;;;18.10;;
75912;SDS011;64592;52.168;21.040;2022-11-15T02:10:58;33.88;;;15.02;;
75912;SDS011;64592;52.168;21.040;2022-11-15T02:16:09;36.80;;;15.80;;
75912;SDS011;64592;52.168;21.040;2022-11-15T02:21:19;36.28;;;15.30;;
75912;SDS011;64592;52.168;21.040;2022-11-15T02:26:36;42.58;;;17.38;;
75912;SDS011;64592;52.168;21.040;2022-11-15T02:32:07;40.13;;;16.48;;
75912;SDS011;64592;52.168;21.040;2022-11-15T02:37:16;37.00;;;15.95;;
75912;SDS011;64592;52.168;21.040;2022-11-15T02:42:23;41.70;;;17.77;;
75912;SDS011;64592;52.168;21.040;2022-11-15T02:47:46;34.63;;;15.25;;
75912;SDS011;64592;52.168;21.040;2022-11-15T02:52:52;38.20;;;18.45;;
75912;SDS011;64592;52.168;21.040;2022-11-15T02:57:57;38.80;;;17.77;;
75912;SDS011;64592;52.168;21.040;2022-11-15T03:03:18;45.90;;;17.73;;
75912;SDS011;64592;52.168;21.040;2022-11-15T03:08:44;35.00;;;16.67;;
75912;SDS011;64592;52.168;21.040;2022-11-15T03:13:56;43.45;;;16.63;;
75912;SDS011;64592;52.168;21.040;2022-11-15T03:19:03;38.55;;;17.00;;
75912;SDS011;64592;52.168;21.040;2022-11-15T03:24:09;41.33;;;17.17;;
75912;SDS011;64592;52.168;21.040;2022-11-15T03:29:14;39.10;;;17.42;;
75912;SDS011;64592;52.168;21.040;2022-11-15T03:39:28;46.55;;;17.95;;
75912;SDS011;64592;52.168;21.040;2022-11-15T03:44:32;48.28;;;19.52;;
75912;SDS011;64592;52.168;21.040;2022-11-15T03:49:42;41.05;;;18.58;;
75912;SDS011;64592;52.168;21.040;2022-11-15T03:54:47;40.10;;;16.33;;
75912;SDS011;64592;52.168;21.040;2022-11-15T03:59:50;47.58;;;18.42;;
75912;SDS011;64592;52.168;21.040;2022-11-15T04:04:53;46.10;;;19.10;;
75912;SDS011;64592;52.168;21.040;2022-11-15T04:09:55;47.53;;;18.75;;
75912;SDS011;64592;52.168;21.040;2022-11-15T04:15:07;46.03;;;18.83;;
75912;SDS011;64592;52.168;21.040;2022-11-15T04:20:13;45.03;;;19.15;;
75912;SDS011;64592;52.168;21.040;2022-11-15T04:25:33;41.20;;;16.35;;
75912;SDS011;64592;52.168;21.040;2022-11-15T04:30:35;43.15;;;17.17;;
75912;SDS011;64592;52.168;21.040;2022-11-15T04:35:38;39.65;;;16.13;;
75912;SDS011;64592;52.168;21.040;2022-11-15T04:40:40;43.97;;;16.45;;
75912;SDS011;64592;52.168;21.040;2022-11-15T04:45:42;45.30;;;16.33;;
75912;SDS011;64592;52.168;21.040;2022-11-15T04:50:45;36.08;;;16.55;;
75912;SDS011;64592;52.168;21.040;2022-11-15T04:55:48;35.30;;;14.20;;
75912;SDS011;64592;52.168;21.040;2022-11-15T05:00:50;43.00;;;15.80;;
75912;SDS011;64592;52.168;21.040;2022-11-15T05:05:53;44.63;;;17.58;;
75912;SDS011;64592;52.168;21.040;2022-11-15T05:10:54;41.28;;;16.25;;
75912;SDS011;64592;52.168;21.040;2022-11-15T05:15:56;41.80;;;15.73;;
75912;SDS011;64592;52.168;21.040;2022-11-15T05:21:03;41.92;;;16.25;;
75912;SDS011;64592;52.168;21.040;2022-11-15T05:26:06;52.72;;;17.92;;
75912;SDS011;64592;52.168;21.040;2022-11-15T05:31:09;44.22;;;17.40;;
75912;SDS011;64592;52.168;21.040;2022-11-15T05:36:14;38.33;;;14.48;;
75912;SDS011;64592;52.168;21.040;2022-11-15T05:41:20;37.72;;;16.27;;
75912;SDS011;64592;52.168;21.040;2022-11-15T05:46:26;43.85;;;16.13;;
75912;SDS011;64592;52.168;21.040;2022-11-15T05:51:30;41.17;;;15.20;;
75912;SDS011;64592;52.168;21.040;2022-11-15T05:56:31;40.78;;;15.98;;
75912;SDS011;64592;52.168;21.040;2022-11-15T06:01:33;41.72;;;14.48;;
75912;SDS011;64592;52.168;21.040;2022-11-15T06:06:36;44.97;;;15.30;;
75912;SDS011;64592;52.168;21.040;2022-11-15T06:11:38;49.75;;;16.95;;
75912;SDS011;64592;52.168;21.040;2022-11-15T06:16:39;44.38;;;16.75;;
75912;SDS011;64592;52.168;21.040;2022-11-15T06:21:42;39.47;;;17.02;;
75912;SDS011;64592;52.168;21.040;2022-11-15T06:26:45;41.78;;;16.77;;
75912;SDS011;64592;52.168;21.040;2022-11-15T06:31:46;44.53;;;15.27;;
75912;SDS011;64592;52.168;21.040;2022-11-15T06:36:49;51.38;;;16.73;;
75912;SDS011;64592;52.168;21.040;2022-11-15T06:41:51;42.10;;;15.00;;
75912;SDS011;64592;52.168;21.040;2022-11-15T06:46:52;43.63;;;15.63;;
75912;SDS011;64592;52.168;21.040;2022-11-15T06:51:55;41.50;;;16.83;;
75912;SDS011;64592;52.168;21.040;2022-11-15T06:56:56;43.70;;;16.92;;
75912;SDS011;64592;52.168;21.040;2022-11-15T07:01:58;46.97;;;16.75;;
75912;SDS011;64592;52.168;21.040;2022-11-15T07:07:01;45.78;;;15.93;;
75912;SDS011;64592;52.168;21.040;2022-11-15T07:12:03;37.60;;;15.45;;
75912;SDS011;64592;52.168;21.040;2022-11-15T07:17:05;48.00;;;15.98;;
75912;SDS011;64592;52.168;21.040;2022-11-15T07:22:08;34.90;;;14.50;;
75912;SDS011;64592;52.168;21.040;2022-11-15T07:27:09;39.45;;;13.90;;
75912;SDS011;64592;52.168;21.040;2022-11-15T07:32:11;38.83;;;13.23;;
75912;SDS011;64592;52.168;21.040;2022-11-15T07:37:13;35.53;;;13.05;;
75912;SDS011;64592;52.168;21.040;2022-11-15T07:42:16;29.17;;;11.43;;
75912;SDS011;64592;52.168;21.040;2022-11-15T07:47:35;33.28;;;14.07;;
75912;SDS011;64592;52.168;21.040;2022-11-15T07:52:38;35.38;;;12.68;;
75912;SDS011;64592;52.168;21.040;2022-11-15T07:57:40;36.13;;;11.65;;
75912;SDS011;64592;52.168;21.040;2022-11-15T08:02:42;27.13;;;12.45;;
75912;SDS011;64592;52.168;21.040;2022-11-15T08:07:45;34.95;;;13.45;;
75912;SDS011;64592;52.168;21.040;2022-11-15T08:12:46;30.73;;;11.35;;
75912;SDS011;64592;52.168;21.040;2022-11-15T08:17:52;26.90;;;12.27;;
75912;SDS011;64592;52.168;21.040;2022-11-15T08:22:56;33.10;;;12.85;;
75912;SDS011;64592;52.168;21.040;2022-11-15T08:27:58;29.27;;;12.07;;
75912;SDS011;64592;52.168;21.040;2022-11-15T08:33:03;29.58;;;13.57;;
75912;SDS011;64592;52.168;21.040;2022-11-15T08:38:06;33.47;;;12.95;;
75912;SDS011;64592;52.168;21.040;2022-11-15T08:43:10;26.92;;;12.25;;
75912;SDS011;64592;52.168;21.040;2022-11-15T08:48:11;32.10;;;12.27;;
75912;SDS011;64592;52.168;21.040;2022-11-15T08:53:14;30.00;;;14.32;;
75912;SDS011;64592;52.168;21.040;2022-11-15T08:58:16;30.52;;;13.13;;
75912;SDS011;64592;52.168;21.040;2022-11-15T09:03:17;30.48;;;12.75;;
75912;SDS011;64592;52.168;21.040;2022-11-15T09:08:20;31.60;;;13.60;;
75912;SDS011;64592;52.168;21.040;2022-11-15T09:13:22;28.20;;;12.13;;
75912;SDS011;64592;52.168;21.040;2022-11-15T09:18:23;32.38;;;13.20;;
75912;SDS011;64592;52.168;21.040;2022-11-15T09:23:27;32.40;;;13.40;;
75912;SDS011;64592;52.168;21.040;2022-11-15T09:28:29;30.15;;;12.02;;
75912;SDS011;64592;52.168;21.040;2022-11-15T09:33:31;30.35;;;13.70;;
75912;SDS011;64592;52.168;21.040;2022-11-15T09:38:34;27.75;;;12.60;;
75912;SDS011;64592;52.168;21.040;2022-11-15T09:43:38;35.25;;;15.23;;
75912;SDS011;64592;52.168;21.040;2022-11-15T09:48:50;35.15;;;14.10;;
75912;SDS011;64592;52.168;21.040;2022-11-15T09:53:58;29.67;;;13.70;;
75912;SDS011;64592;52.168;21.040;2022-11-15T09:59:17;33.08;;;13.52;;
75912;SDS011;64592;52.168;21.040;2022-11-15T10:04:27;37.20;;;15.93;;
75912;SDS011;64592;52.168;21.040;2022-11-15T10:09:31;34.50;;;14.57;;
75912;SDS011;64592;52.168;21.040;2022-11-15T10:14:38;36.00;;;16.88;;
75912;SDS011;64592;52.168;21.040;2022-11-15T10:19:43;34.03;;;15.48;;
75912;SDS011;64592;52.168;21.040;2022-11-15T10:25:00;26.35;;;13.73;;
75912;SDS011;64592;52.168;21.040;2022-11-15T10:30:14;35.15;;;15.23;;
75912;SDS011;64592;52.168;21.040;2022-11-15T10:35:19;31.75;;;14.23;;
75912;SDS011;64592;52.168;21.040;2022-11-15T10:40:25;34.35;;;15.35;;
75912;SDS011;64592;52.168;21.040;2022-11-15T10:45:27;32.00;;;14.82;;
75912;SDS011;64592;52.168;21.040;2022-11-15T10:50:31;36.88;;;15.68;;
75912;SDS011;64592;52.168;21.040;2022-11-15T10:55:35;33.38;;;14.38;;
75912;SDS011;64592;52.168;21.040;2022-11-15T11:00:36;37.90;;;15.70;;
75912;SDS011;64592;52.168;21.040;2022-11-15T11:05:40;36.00;;;14.93;;
75912;SDS011;64592;52.168;21.040;2022-11-15T11:10:44;32.58;;;15.00;;
75912;SDS011;64592;52.168;21.040;2022-11-15T11:15:54;33.13;;;13.45;;
75912;SDS011;64592;52.168;21.040;2022-11-15T11:21:01;35.63;;;14.98;;
75912;SDS011;64592;52.168;21.040;2022-11-15T11:26:11;33.67;;;16.65;;
75912;SDS011;64592;52.168;21.040;2022-11-15T11:31:28;32.08;;;15.45;;
75912;SDS011;64592;52.168;21.040;2022-11-15T11:36:39;32.53;;;13.75;;
75912;SDS011;64592;52.168;21.040;2022-11-15T11:41:46;43.95;;;16.40;;
75912;SDS011;64592;52.168;21.040;2022-11-15T11:46:55;35.67;;;16.92;;
75912;SDS011;64592;52.168;21.040;2022-11-15T11:52:02;43.85;;;17.50;;
75912;SDS011;64592;52.168;21.040;2022-11-15T11:57:13;40.70;;;18.17;;
75912;SDS011;64592;52.168;21.040;2022-11-15T12:02:25;42.47;;;17.30;;
75912;SDS011;64592;52.168;21.040;2022-11-15T12:07:30;40.90;;;18.15;;
75912;SDS011;64592;52.168;21.040;2022-11-15T12:12:38;40.97;;;17.75;;
75912;SDS011;64592;52.168;21.040;2022-11-15T12:17:44;38.90;;;17.83;;
75912;SDS011;64592;52.168;21.040;2022-11-15T12:22:49;46.58;;;20.05;;
75912;SDS011;64592;52.168;21.040;2022-11-15T12:27:59;38.53;;;17.27;;
75912;SDS011;64592;52.168;21.040;2022-11-15T12:33:05;32.28;;;14.82;;
75912;SDS011;64592;52.168;21.040;2022-11-15T12:43:56;40.30;;;16.80;;
75912;SDS011;64592;52.168;21.040;2022-11-15T12:48:59;40.47;;;17.77;;
75912;SDS011;64592;52.168;21.040;2022-11-15T12:54:13;47.33;;;18.95;;
75912;SDS011;64592;52.168;21.040;2022-11-15T12:59:54;42.70;;;19.67;;
75912;SDS011;64592;52.168;21.040;2022-11-15T13:10:41;42.58;;;19.83;;
75912;SDS011;64592;52.168;21.040;2022-11-15T13:15:54;43.95;;;20.42;;
75912;SDS011;64592;52.168;21.040;2022-11-15T13:20:57;43.88;;;19.55;;
75912;SDS011;64592;52.168;21.040;2022-11-15T13:26:02;42.72;;;18.52;;
75912;SDS011;64592;52.168;21.040;2022-11-15T13:31:19;40.88;;;18.92;;
75912;SDS011;64592;52.168;21.040;2022-11-15T13:36:30;45.95;;;19.65;;
75912;SDS011;64592;52.168;21.040;2022-11-15T13:41:35;42.30;;;19.20;;
75912;SDS011;64592;52.168;21.040;2022-11-15T13:46:38;39.45;;;18.00;;
75912;SDS011;64592;52.168;21.040;2022-11-15T13:51:42;37.38;;;19.95;;
75912;SDS011;64592;52.168;21.040;2022-11-15T13:56:47;41.28;;;18.85;;
75912;SDS011;64592;52.168;21.040;2022-11-15T14:01:52;44.33;;;21.38;;
75912;SDS011;64592;52.168;21.040;2022-11-15T14:06:56;52.08;;;20.65;;
75912;SDS011;64592;52.168;21.040;2022-11-15T14:12:01;48.28;;;21.23;;
75912;SDS011;64592;52.168;21.040;2022-11-15T14:17:33;54.50;;;23.48;;
75912;SDS011;64592;52.168;21.040;2022-11-15T14:22:37;46.10;;;20.60;;
75912;SDS011;64592;52.168;21.040;2022-11-15T14:28:08;49.90;;;22.48;;
75912;SDS011;64592;52.168;21.040;2022-11-15T14:33:21;51.22;;;22.15;;
75912;SDS011;64592;52.168;21.040;2022-11-15T14:38:25;46.20;;;20.38;;
75912;SDS011;64592;52.168;21.040;2022-11-15T14:43:27;47.47;;;22.30;;
75912;SDS011;64592;52.168;21.040;2022-11-15T14:48:30;51.25;;;21.15;;
75912;SDS011;64592;52.168;21.040;2022-11-15T14:53:31;49.35;;;22.05;;
75912;SDS011;64592;52.168;21.040;2022-11-15T14:58:33;50.88;;;23.33;;
75912;SDS011;64592;52.168;21.040;2022-11-15T15:03:36;56.20;;;22.88;;
75912;SDS011;64592;52.168;21.040;2022-11-15T15:08:37;55.58;;;24.10;;
75912;SDS011;64592;52.168;21.040;2022-11-15T15:13:39;47.30;;;23.02;;
75912;SDS011;64592;52.168;21.040;2022-11-15T15:18:42;52.13;;;21.55;;
75912;SDS011;64592;52.168;21.040;2022-11-15T15:23:44;50.35;;;21.38;;
75912;SDS011;64592;52.168;21.040;2022-11-15T15:28:45;51.30;;;22.52;;
75912;SDS011;64592;52.168;21.040;2022-11-15T15:33:50;52.75;;;21.13;;
75912;SDS011;64592;52.168;21.040;2022-11-15T15:38:51;54.80;;;22.48;;
75912;SDS011;64592;52.168;21.040;2022-11-15T15:43:55;54.40;;;23.33;;
75912;SDS011;64592;52.168;21.040;2022-11-15T15:48:58;53.88;;;23.40;;
75912;SDS011;64592;52.168;21.040;2022-11-15T15:53:59;55.08;;;22.60;;
75912;SDS011;64592;52.168;21.040;2022-11-15T15:59:01;55.80;;;24.40;;
75912;SDS011;64592;52.168;21.040;2022-11-15T16:04:03;61.95;;;24.95;;
75912;SDS011;64592;52.168;21.040;2022-11-15T16:09:05;59.63;;;24.50;;
75912;SDS011;64592;52.168;21.040;2022-11-15T16:14:07;63.95;;;25.30;;
75912;SDS011;64592;52.168;21.040;2022-11-15T16:19:10;59.33;;;23.20;;
75912;SDS011;64592;52.168;21.040;2022-11-15T16:24:13;57.63;;;22.80;;
75912;SDS011;64592;52.168;21.040;2022-11-15T16:29:14;53.33;;;21.92;;
75912;SDS011;64592;52.168;21.040;2022-11-15T16:34:17;50.70;;;23.58;;
75912;SDS011;64592;52.168;21.040;2022-11-15T16:39:19;59.40;;;23.38;;
75912;SDS011;64592;52.168;21.040;2022-11-15T16:44:20;51.72;;;21.95;;
75912;SDS011;64592;52.168;21.040;2022-11-15T16:49:23;52.20;;;21.83;;
75912;SDS011;64592;52.168;21.040;2022-11-15T16:54:25;57.08;;;21.73;;
75912;SDS011;64592;52.168;21.040;2022-11-15T16:59:26;54.90;;;20.92;;
75912;SDS011;64592;52.168;21.040;2022-11-15T17:04:31;53.00;;;20.80;;
75912;SDS011;64592;52.168;21.040;2022-11-15T17:09:33;54.78;;;22.08;;
75912;SDS011;64592;52.168;21.040;2022-11-15T17:14:34;52.15;;;21.70;;
75912;SDS011;64592;52.168;21.040;2022-11-15T17:19:37;55.45;;;21.30;;
75912;SDS011;64592;52.168;21.040;2022-11-15T17:24:39;57.38;;;23.08;;
75912;SDS011;64592;52.168;21.040;2022-11-15T17:29:41;60.20;;;23.50;;
75912;SDS011;64592;52.168;21.040;2022-11-15T17:34:44;50.15;;;20.90;;
75912;SDS011;64592;52.168;21.040;2022-11-15T17:39:45;49.38;;;21.77;;
75912;SDS011;64592;52.168;21.040;2022-11-15T17:44:47;54.33;;;21.40;;
75912;SDS011;64592;52.168;21.040;2022-11-15T17:49:50;66.03;;;23.63;;
75912;SDS011;64592;52.168;21.040;2022-11-15T17:54:51;60.67;;;21.30;;
75912;SDS011;64592;52.168;21.040;2022-11-15T17:59:53;54.83;;;21.08;;
75912;SDS011;64592;52.168;21.040;2022-11-15T18:04:56;55.88;;;22.00;;
75912;SDS011;64592;52.168;21.040;2022-11-15T18:09:57;61.22;;;21.45;;
75912;SDS011;64592;52.168;21.040;2022-11-15T18:14:59;54.25;;;21.30;;
75912;SDS011;64592;52.168;21.040;2022-11-15T18:20:02;51.97;;;21.27;;
75912;SDS011;64592;52.168;21.040;2022-11-15T18:25:04;48.13;;;19.63;;
75912;SDS011;64592;52.168;21.040;2022-11-15T18:30:07;49.35;;;20.52;;
75912;SDS011;64592;52.168;21.040;2022-11-15T18:35:10;50.15;;;20.90;;
75912;SDS011;64592;52.168;21.040;2022-11-15T18:40:12;48.80;;;19.02;;
75912;SDS011;64592;52.168;21.040;2022-11-15T18:45:13;43.72;;;18.58;;
75912;SDS011;64592;52.168;21.040;2022-11-15T18:50:17;43.45;;;17.10;;
75912;SDS011;64592;52.168;21.040;2022-11-15T18:55:19;48.78;;;16.92;;
75912;SDS011;64592;52.168;21.040;2022-11-15T19:00:20;40.33;;;16.58;;
75912;SDS011;64592;52.168;21.040;2022-11-15T19:05:23;41.03;;;16.90;;
75912;SDS011;64592;52.168;21.040;2022-11-15T19:10:25;43.45;;;16.80;;
75912;SDS011;64592;52.168;21.040;2022-11-15T19:15:26;38.45;;;17.20;;
75912;SDS011;64592;52.168;21.040;2022-11-15T19:20:29;38.80;;;17.65;;
75912;SDS011;64592;52.168;21.040;2022-11-15T19:25:31;39.33;;;16.42;;
75912;SDS011;64592;52.168;21.040;2022-11-15T19:30:32;43.38;;;17.38;;
75912;SDS011;64592;52.168;21.040;2022-11-15T19:35:35;36.40;;;14.40;;
75912;SDS011;64592;52.168;21.040;2022-11-15T19:40:37;34.17;;;13.07;;
75912;SDS011;64592;52.168;21.040;2022-11-15T19:45:38;35.75;;;14.75;;
75912;SDS011;64592;52.168;21.040;2022-11-15T19:50:41;29.90;;;13.27;;
75912;SDS011;64592;52.168;21.040;2022-11-15T19:55:51;37.88;;;13.82;;
75912;SDS011;64592;52.168;21.040;2022-11-15T20:00:58;36.45;;;14.05;;
75912;SDS011;64592;52.168;21.040;2022-11-15T20:06:02;33.33;;;14.43;;
75912;SDS011;64592;52.168;21.040;2022-11-15T20:11:05;32.58;;;13.95;;
75912;SDS011;64592;52.168;21.040;2022-11-15T20:16:07;31.23;;;11.80;;
75912;SDS011;64592;52.168;21.040;2022-11-15T20:21:11;30.15;;;12.27;;
75912;SDS011;64592;52.168;21.040;2022-11-15T20:26:12;25.88;;;11.60;;
75912;SDS011;64592;52.168;21.040;2022-11-15T20:31:15;27.90;;;12.70;;
75912;SDS011;64592;52.168;21.040;2022-11-15T20:36:19;31.15;;;12.57;;
75912;SDS011;64592;52.168;21.040;2022-11-15T20:41:20;29.73;;;14.10;;
75912;SDS011;64592;52.168;21.040;2022-11-15T20:46:22;28.08;;;13.55;;
75912;SDS011;64592;52.168;21.040;2022-11-15T20:51:25;33.70;;;13.25;;
75912;SDS011;64592;52.168;21.040;2022-11-15T20:56:26;22.08;;;9.75;;
75912;SDS011;64592;52.168;21.040;2022-11-15T21:01:28;21.90;;;10.45;;
75912;SDS011;64592;52.168;21.040;2022-11-15T21:06:32;23.60;;;10.55;;
75912;SDS011;64592;52.168;21.040;2022-11-15T21:11:33;24.08;;;10.70;;
75912;SDS011;64592;52.168;21.040;2022-11-15T21:16:53;22.50;;;9.65;;
75912;SDS011;64592;52.168;21.040;2022-11-15T21:21:56;23.17;;;11.05;;
75912;SDS011;64592;52.168;21.040;2022-11-15T21:26:57;23.65;;;10.90;;
75912;SDS011;64592;52.168;21.040;2022-11-15T21:31:59;19.90;;;10.20;;
75912;SDS011;64592;52.168;21.040;2022-11-15T21:37:02;24.77;;;10.18;;
75912;SDS011;64592;52.168;21.040;2022-11-15T21:42:04;22.48;;;10.45;;
75912;SDS011;64592;52.168;21.040;2022-11-15T21:47:06;26.13;;;10.43;;
75912;SDS011;64592;52.168;21.040;2022-11-15T21:52:08;23.08;;;10.15;;
75912;SDS011;64592;52.168;21.040;2022-11-15T21:57:10;22.45;;;10.25;;
75912;SDS011;64592;52.168;21.040;2022-11-15T22:02:12;19.75;;;8.48;;
75912;SDS011;64592;52.168;21.040;2022-11-15T22:07:18;23.05;;;9.25;;
75912;SDS011;64592;52.168;21.040;2022-11-15T22:12:19;21.02;;;9.68;;
75912;SDS011;64592;52.168;21.040;2022-11-15T22:17:21;20.13;;;7.88;;
75912;SDS011;64592;52.168;21.040;2022-11-15T22:22:24;22.13;;;9.43;;
75912;SDS011;64592;52.168;21.040;2022-11-15T22:27:26;23.65;;;9.55;;
75912;SDS011;64592;52.168;21.040;2022-11-15T22:32:28;24.63;;;9.90;;
75912;SDS011;64592;52.168;21.040;2022-11-15T22:37:31;28.02;;;10.73;;
75912;SDS011;64592;52.168;21.040;2022-11-15T22:42:32;25.33;;;10.45;;
75912;SDS011;64592;52.168;21.040;2022-11-15T22:47:34;24.17;;;10.18;;
75912;SDS011;64592;52.168;21.040;2022-11-15T22:52:37;25.50;;;10.98;;
75912;SDS011;64592;52.168;21.040;2022-11-15T22:57:38;21.23;;;9.82;;
75912;SDS011;64592;52.168;21.040;2022-11-15T23:02:40;27.95;;;11.35;;
75912;SDS011;64592;52.168;21.040;2022-11-15T23:07:43;29.70;;;10.40;;
75912;SDS011;64592;52.168;21.040;2022-11-15T23:12:44;21.75;;;9.95;;
75912;SDS011;64592;52.168;21.040;2022-11-15T23:18:04;25.05;;;9.30;;
75912;SDS011;64592;52.168;21.040;2022-11-15T23:23:07;32.95;;;11.85;;
75912;SDS011;64592;52.168;21.040;2022-11-15T23:28:09;30.75;;;11.52;;
75912;SDS011;64592;52.168;21.040;2022-11-15T23:33:11;32.58;;;12.25;;
75912;SDS011;64592;52.168;21.040;2022-11-15T23:38:33;28.20;;;11.40;;
75912;SDS011;64592;52.168;21.040;2022-11-15T23:43:36;29.45;;;12.73;;
75912;SDS011;64592;52.168;21.040;2022-11-15T23:48:37;34.15;;;11.88;;
75912;SDS011;64592;52.168;21.040;2022-11-15T23:53:40;29.52;;;12.38;;
75912;SDS011;64592;52.168;21.040;2022-11-15T23:58:42;29.88;;;12.07;;
